createdAt,value
2018-06-23T00:00:00.836Z,24.8
2018-06-23T00:00:51.161Z,24.8
2018-06-23T00:01:41.244Z,24.8
2018-06-23T00:02:31.073Z,24.8
2018-06-23T00:03:21.363Z,24.8
2018-06-23T00:04:11.438Z,24.8
2018-06-23T00:05:01.205Z,24.8
2018-06-23T00:05:51.546Z,24.8
2018-06-23T00:06:41.610Z,24.8
2018-06-23T00:07:31.688Z,24.8
2018-06-23T00:08:21.455Z,24.7
2018-06-23T00:09:11.807Z,24.8
2018-06-23T00:10:01.868Z,24.8
2018-06-23T00:10:51.657Z,24.7
2018-06-23T00:11:41.987Z,24.8
2018-06-23T00:12:32.049Z,24.8
2018-06-23T00:13:21.857Z,24.7
2018-06-23T00:14:11.898Z,24.8
2018-06-23T00:15:01.962Z,24.7
2018-06-23T00:15:52.322Z,24.8
2018-06-23T00:16:42.095Z,24.8
2018-06-23T00:17:32.427Z,24.8
2018-06-23T00:18:22.223Z,24.7
2018-06-23T00:19:12.577Z,24.8
2018-06-23T00:20:02.645Z,24.8
2018-06-23T00:20:52.408Z,24.8
2018-06-23T00:21:42.780Z,24.7
2018-06-23T00:22:32.821Z,24.8
2018-06-23T00:23:22.600Z,24.8
2018-06-23T00:24:12.939Z,24.8
2018-06-23T00:25:03.026Z,24.8
2018-06-23T00:25:53.087Z,24.8
2018-06-23T00:26:42.848Z,24.8
2018-06-23T00:27:32.932Z,24.8
2018-06-23T00:28:23.268Z,24.8
2018-06-23T00:29:13.058Z,24.8
2018-06-23T00:30:03.400Z,24.8
2018-06-23T00:30:53.187Z,24.8
2018-06-23T00:31:43.529Z,24.8
2018-06-23T00:32:33.581Z,24.8
2018-06-23T00:33:23.641Z,24.8
2018-06-23T00:34:13.725Z,24.8
2018-06-23T00:35:03.784Z,24.8
2018-06-23T00:35:53.833Z,24.8
2018-06-23T00:36:43.943Z,24.8
2018-06-23T00:37:33.963Z,24.8
2018-06-23T00:38:23.745Z,24.8
2018-06-23T00:39:14.112Z,24.8
2018-06-23T00:40:04.156Z,24.8
2018-06-23T00:40:54.213Z,24.8
2018-06-23T00:41:44.291Z,24.8
2018-06-23T00:42:34.352Z,24.8
2018-06-23T00:43:24.413Z,24.8
2018-06-23T00:44:14.488Z,24.8
2018-06-23T00:45:04.547Z,24.8
2018-06-23T00:45:54.615Z,24.8
2018-06-23T00:46:44.677Z,24.8
2018-06-23T00:47:34.737Z,24.8
2018-06-23T00:48:24.509Z,24.8
2018-06-23T00:49:14.855Z,24.8
2018-06-23T00:50:04.924Z,24.8
2018-06-23T00:50:54.988Z,24.8
2018-06-23T00:51:45.058Z,24.8
2018-06-23T00:52:35.130Z,24.8
2018-06-23T00:53:25.190Z,24.8
2018-06-23T00:54:15.249Z,24.8
2018-06-23T00:55:05.320Z,24.8
2018-06-23T00:55:55.358Z,24.8
2018-06-23T00:56:45.158Z,24.8
2018-06-23T00:57:35.486Z,24.8
2018-06-23T00:58:25.557Z,24.8
2018-06-23T00:59:15.638Z,24.8
2018-06-23T01:00:05.687Z,24.8
2018-06-23T01:00:55.745Z,24.8
2018-06-23T01:01:45.805Z,24.8
2018-06-23T01:02:35.875Z,24.8
2018-06-23T01:03:25.655Z,24.8
2018-06-23T01:04:16.003Z,24.8
2018-06-23T01:05:05.788Z,24.8
2018-06-23T01:05:56.127Z,24.8
2018-06-23T01:06:46.188Z,24.8
2018-06-23T01:07:35.692Z,24.8
2018-06-23T01:08:26.317Z,24.8
2018-06-23T01:09:16.096Z,24.8
2018-06-23T01:10:05.885Z,24.8
2018-06-23T01:10:56.514Z,24.8
2018-06-23T01:11:46.304Z,24.8
2018-06-23T01:12:36.357Z,24.8
2018-06-23T01:13:26.441Z,24.8
2018-06-23T01:14:16.495Z,24.8
2018-06-23T01:15:06.548Z,24.8
2018-06-23T01:15:56.894Z,24.8
2018-06-23T01:16:46.958Z,24.8
2018-06-23T01:17:37.041Z,24.8
2018-06-23T01:18:27.076Z,24.8
2018-06-23T01:19:17.148Z,24.8
2018-06-23T01:20:07.215Z,24.7
2018-06-23T01:20:57.264Z,24.8
2018-06-23T01:21:47.353Z,24.8
2018-06-23T01:22:37.399Z,24.8
2018-06-23T01:23:27.463Z,24.8
2018-06-23T01:24:17.529Z,24.8
2018-06-23T01:25:07.600Z,24.8
2018-06-23T01:25:57.671Z,24.8
2018-06-23T01:26:47.152Z,24.8
2018-06-23T01:27:37.785Z,24.8
2018-06-23T01:28:27.844Z,24.8
2018-06-23T01:29:17.925Z,24.8
2018-06-23T01:30:07.695Z,24.8
2018-06-23T01:30:58.033Z,24.8
2018-06-23T01:31:48.100Z,24.8
2018-06-23T01:32:38.156Z,24.8
2018-06-23T01:33:28.216Z,24.8
2018-06-23T01:34:18.292Z,24.8
2018-06-23T01:35:08.357Z,24.7
2018-06-23T01:35:58.415Z,24.8
2018-06-23T01:36:48.217Z,24.8
2018-06-23T01:37:38.544Z,24.8
2018-06-23T01:38:28.335Z,24.8
2018-06-23T01:39:18.678Z,24.8
2018-06-23T01:40:08.462Z,24.8
2018-06-23T01:40:58.804Z,24.7
2018-06-23T01:41:48.585Z,24.7
2018-06-23T01:42:38.962Z,24.7
2018-06-23T01:43:29.004Z,24.8
2018-06-23T01:44:19.066Z,24.8
2018-06-23T01:45:09.126Z,24.8
2018-06-23T01:45:58.904Z,24.7
2018-06-23T01:46:49.249Z,24.8
2018-06-23T01:47:39.315Z,24.8
2018-06-23T01:48:29.385Z,24.8
2018-06-23T01:49:19.436Z,24.8
2018-06-23T01:50:09.226Z,24.8
2018-06-23T01:50:59.613Z,24.8
2018-06-23T01:51:49.654Z,24.8
2018-06-23T01:52:39.694Z,24.8
2018-06-23T01:53:29.766Z,24.8
2018-06-23T01:54:19.818Z,24.8
2018-06-23T01:55:09.603Z,24.7
2018-06-23T01:55:59.954Z,24.8
2018-06-23T01:56:50.016Z,24.7
2018-06-23T01:57:40.076Z,24.8
2018-06-23T01:58:30.282Z,24.8
2018-06-23T01:59:20.204Z,24.8
2018-06-23T02:00:10.297Z,24.8
2018-06-23T02:01:00.337Z,24.7
2018-06-23T02:01:50.412Z,24.8
2018-06-23T02:02:40.477Z,24.8
2018-06-23T02:03:30.515Z,24.7
2018-06-23T02:04:20.587Z,24.8
2018-06-23T02:05:10.369Z,24.7
2018-06-23T02:06:00.722Z,24.8
2018-06-23T02:06:50.793Z,24.8
2018-06-23T02:07:40.837Z,24.7
2018-06-23T02:08:30.911Z,24.8
2018-06-23T02:09:20.975Z,24.8
2018-06-23T02:10:10.749Z,24.8
2018-06-23T02:11:01.094Z,24.8
2018-06-23T02:11:51.178Z,24.8
2018-06-23T02:12:41.255Z,24.8
2018-06-23T02:13:31.312Z,24.8
2018-06-23T02:14:21.413Z,24.8
2018-06-23T02:15:11.127Z,24.8
2018-06-23T02:16:01.194Z,24.8
2018-06-23T02:16:51.255Z,24.8
2018-06-23T02:17:41.602Z,24.7
2018-06-23T02:18:31.667Z,24.8
2018-06-23T02:19:21.737Z,24.8
2018-06-23T02:20:11.789Z,24.7
2018-06-23T02:21:01.574Z,24.7
2018-06-23T02:21:51.637Z,24.8
2018-06-23T02:22:41.992Z,24.7
2018-06-23T02:23:32.045Z,24.8
2018-06-23T02:24:22.107Z,24.7
2018-06-23T02:25:12.170Z,24.8
2018-06-23T02:26:02.234Z,24.7
2018-06-23T02:26:52.293Z,24.7
2018-06-23T02:27:42.363Z,24.8
2018-06-23T02:28:32.425Z,24.7
2018-06-23T02:29:22.208Z,24.8
2018-06-23T02:30:12.268Z,24.7
2018-06-23T02:31:02.619Z,24.8
2018-06-23T02:31:52.707Z,24.8
2018-06-23T02:32:42.473Z,24.7
2018-06-23T02:33:32.828Z,24.7
2018-06-23T02:34:22.865Z,24.8
2018-06-23T02:35:12.967Z,24.7
2018-06-23T02:36:02.995Z,24.7
2018-06-23T02:36:53.051Z,24.7
2018-06-23T02:37:43.139Z,24.7
2018-06-23T02:38:33.205Z,24.7
2018-06-23T02:39:23.269Z,24.8
2018-06-23T02:40:13.306Z,24.7
2018-06-23T02:41:03.105Z,24.7
2018-06-23T02:41:53.171Z,24.8
2018-06-23T02:42:43.498Z,24.8
2018-06-23T02:43:33.576Z,24.7
2018-06-23T02:44:23.058Z,24.8
2018-06-23T02:45:13.690Z,24.8
2018-06-23T02:46:03.775Z,24.7
2018-06-23T02:46:53.847Z,24.7
2018-06-23T02:47:43.883Z,24.7
2018-06-23T02:48:33.949Z,24.8
2018-06-23T02:49:24.005Z,24.7
2018-06-23T02:50:14.065Z,24.7
2018-06-23T02:51:04.150Z,24.7
2018-06-23T02:51:54.201Z,24.7
2018-06-23T02:52:44.280Z,24.8
2018-06-23T02:53:34.325Z,24.7
2018-06-23T02:54:24.408Z,24.8
2018-06-23T02:55:14.481Z,24.7
2018-06-23T02:56:04.566Z,24.7
2018-06-23T02:56:54.579Z,24.7
2018-06-23T02:57:44.362Z,24.7
2018-06-23T02:58:34.703Z,24.7
2018-06-23T02:59:24.504Z,24.8
2018-06-23T03:00:14.836Z,24.7
2018-06-23T03:01:04.627Z,24.8
2018-06-23T03:01:54.959Z,24.7
2018-06-23T03:02:44.740Z,24.7
2018-06-23T03:03:35.078Z,24.7
2018-06-23T03:04:25.155Z,24.7
2018-06-23T03:05:15.211Z,24.7
2018-06-23T03:06:05.045Z,24.8
2018-06-23T03:06:55.335Z,24.7
2018-06-23T03:07:45.419Z,24.7
2018-06-23T03:08:35.460Z,24.7
2018-06-23T03:09:25.530Z,24.8
2018-06-23T03:10:15.588Z,24.7
2018-06-23T03:11:05.677Z,24.7
2018-06-23T03:11:55.444Z,24.7
2018-06-23T03:12:45.797Z,24.7
2018-06-23T03:13:35.843Z,24.7
2018-06-23T03:14:25.915Z,24.7
2018-06-23T03:15:15.986Z,24.7
2018-06-23T03:16:06.032Z,24.7
2018-06-23T03:16:56.101Z,24.7
2018-06-23T03:17:46.154Z,24.7
2018-06-23T03:18:36.231Z,24.7
2018-06-23T03:19:26.291Z,24.7
2018-06-23T03:20:16.067Z,24.7
2018-06-23T03:21:06.429Z,24.7
2018-06-23T03:21:56.479Z,24.7
2018-06-23T03:22:46.543Z,24.7
2018-06-23T03:23:36.308Z,24.7
2018-06-23T03:24:26.656Z,24.7
2018-06-23T03:25:16.865Z,24.7
2018-06-23T03:26:06.793Z,24.7
2018-06-23T03:26:56.862Z,24.7
2018-06-23T03:27:46.901Z,24.7
2018-06-23T03:28:36.697Z,24.7
2018-06-23T03:29:26.745Z,24.7
2018-06-23T03:30:17.138Z,24.7
2018-06-23T03:31:07.227Z,24.7
2018-06-23T03:31:56.950Z,24.7
2018-06-23T03:32:47.023Z,24.7
2018-06-23T03:33:37.341Z,24.7
2018-06-23T03:34:27.127Z,24.7
2018-06-23T03:35:17.189Z,24.7
2018-06-23T03:36:07.528Z,24.7
2018-06-23T03:36:57.588Z,24.7
2018-06-23T03:37:47.680Z,24.7
2018-06-23T03:38:37.719Z,24.7
2018-06-23T03:39:27.515Z,24.7
2018-06-23T03:40:17.847Z,24.7
2018-06-23T03:41:07.906Z,24.7
2018-06-23T03:41:57.690Z,24.7
2018-06-23T03:42:48.035Z,24.7
2018-06-23T03:43:38.092Z,24.7
2018-06-23T03:44:28.163Z,24.7
2018-06-23T03:45:17.935Z,24.7
2018-06-23T03:46:07.999Z,24.7
2018-06-23T03:46:58.341Z,24.7
2018-06-23T03:47:48.440Z,24.8
2018-06-23T03:48:38.209Z,24.7
2018-06-23T03:49:28.532Z,24.7
2018-06-23T03:50:18.619Z,24.7
2018-06-23T03:51:08.725Z,24.7
2018-06-23T03:51:58.443Z,24.7
2018-06-23T03:52:48.503Z,24.7
2018-06-23T03:53:38.286Z,24.7
2018-06-23T03:54:28.648Z,24.7
2018-06-23T03:55:18.978Z,24.7
2018-06-23T03:56:09.036Z,24.7
2018-06-23T03:56:58.831Z,24.7
2018-06-23T03:57:49.158Z,24.7
2018-06-23T03:58:39.244Z,24.7
2018-06-23T03:59:29.297Z,24.7
2018-06-23T04:00:19.349Z,24.7
2018-06-23T04:01:09.416Z,24.7
2018-06-23T04:01:59.496Z,24.7
2018-06-23T04:02:49.540Z,24.6
2018-06-23T04:03:39.597Z,24.7
2018-06-23T04:04:29.667Z,24.7
2018-06-23T04:05:19.732Z,24.7
2018-06-23T04:06:09.512Z,24.7
2018-06-23T04:06:59.660Z,24.7
2018-06-23T04:07:49.930Z,24.7
2018-06-23T04:08:39.974Z,24.7
2018-06-23T04:09:29.762Z,24.7
2018-06-23T04:10:20.125Z,24.7
2018-06-23T04:11:09.891Z,24.7
2018-06-23T04:12:00.249Z,24.7
2018-06-23T04:12:50.013Z,24.7
2018-06-23T04:13:40.358Z,24.7
2018-06-23T04:14:30.424Z,24.7
2018-06-23T04:15:20.496Z,24.7
2018-06-23T04:16:10.563Z,24.7
2018-06-23T04:17:00.604Z,24.7
2018-06-23T04:17:50.683Z,24.7
2018-06-23T04:18:40.731Z,24.7
2018-06-23T04:19:30.535Z,24.7
2018-06-23T04:20:20.577Z,24.7
2018-06-23T04:21:10.934Z,24.7
2018-06-23T04:22:00.997Z,24.7
2018-06-23T04:22:50.767Z,24.7
2018-06-23T04:23:41.118Z,24.7
2018-06-23T04:24:30.888Z,24.7
2018-06-23T04:25:20.952Z,24.6
2018-06-23T04:26:11.019Z,24.6
2018-06-23T04:27:01.075Z,24.7
2018-06-23T04:27:51.417Z,24.7
2018-06-23T04:28:41.195Z,24.7
2018-06-23T04:29:31.548Z,24.7
2018-06-23T04:30:21.605Z,24.7
2018-06-23T04:31:11.664Z,24.7
2018-06-23T04:32:01.751Z,24.7
2018-06-23T04:32:51.797Z,24.7
2018-06-23T04:33:41.859Z,24.7
2018-06-23T04:34:31.949Z,24.7
2018-06-23T04:35:21.984Z,24.7
2018-06-23T04:36:12.063Z,24.7
2018-06-23T04:37:02.109Z,24.7
2018-06-23T04:37:52.190Z,24.7
2018-06-23T04:38:41.966Z,24.7
2018-06-23T04:39:32.293Z,24.7
2018-06-23T04:40:22.369Z,24.6
2018-06-23T04:41:12.422Z,24.6
2018-06-23T04:42:02.521Z,24.6
2018-06-23T04:42:52.287Z,24.6
2018-06-23T04:43:42.615Z,24.7
2018-06-23T04:44:32.666Z,24.6
2018-06-23T04:45:22.458Z,24.6
2018-06-23T04:46:12.802Z,24.6
2018-06-23T04:47:02.868Z,24.7
2018-06-23T04:47:52.356Z,24.6
2018-06-23T04:48:42.998Z,24.6
2018-06-23T04:49:33.050Z,24.7
2018-06-23T04:50:22.840Z,24.6
2018-06-23T04:51:12.904Z,24.6
2018-06-23T04:52:03.225Z,24.6
2018-06-23T04:52:53.299Z,24.6
2018-06-23T04:53:43.369Z,24.6
2018-06-23T04:54:33.420Z,24.6
2018-06-23T04:55:23.480Z,24.6
2018-06-23T04:56:13.542Z,24.6
2018-06-23T04:57:03.334Z,24.6
2018-06-23T04:57:53.674Z,24.7
2018-06-23T04:58:43.472Z,24.7
2018-06-23T04:59:33.808Z,24.6
2018-06-23T05:00:24.012Z,24.6
2018-06-23T05:01:13.920Z,24.6
2018-06-23T05:02:03.978Z,24.6
2018-06-23T05:02:54.053Z,24.7
2018-06-23T05:03:44.108Z,24.7
2018-06-23T05:04:34.172Z,24.6
2018-06-23T05:05:24.241Z,24.7
2018-06-23T05:06:14.018Z,24.7
2018-06-23T05:07:04.382Z,24.6
2018-06-23T05:07:54.418Z,24.6
2018-06-23T05:08:44.543Z,24.6
2018-06-23T05:09:34.547Z,24.7
2018-06-23T05:10:24.615Z,24.6
2018-06-23T05:11:14.670Z,24.6
2018-06-23T05:12:04.452Z,24.6
2018-06-23T05:12:54.520Z,24.6
2018-06-23T05:13:44.872Z,24.6
2018-06-23T05:14:34.647Z,24.6
2018-06-23T05:15:25.030Z,24.6
2018-06-23T05:16:15.095Z,24.6
2018-06-23T05:17:05.107Z,24.7
2018-06-23T05:17:54.897Z,24.6
2018-06-23T05:18:45.160Z,24.6
2018-06-23T05:19:35.300Z,24.6
2018-06-23T05:20:25.384Z,24.7
2018-06-23T05:21:15.428Z,24.6
2018-06-23T05:22:05.485Z,24.6
2018-06-23T05:22:55.549Z,24.6
2018-06-23T05:23:45.612Z,24.6
2018-06-23T05:24:35.672Z,24.7
2018-06-23T05:25:25.752Z,24.6
2018-06-23T05:26:15.829Z,24.7
2018-06-23T05:27:05.882Z,24.6
2018-06-23T05:27:55.922Z,24.6
2018-06-23T05:28:45.996Z,24.7
2018-06-23T05:29:36.051Z,24.6
2018-06-23T05:30:26.148Z,24.6
2018-06-23T05:31:16.185Z,24.6
2018-06-23T05:32:05.974Z,24.6
2018-06-23T05:32:56.339Z,24.6
2018-06-23T05:33:46.113Z,24.6
2018-06-23T05:34:36.433Z,24.6
2018-06-23T05:35:25.929Z,24.6
2018-06-23T05:36:16.577Z,24.6
2018-06-23T05:37:06.629Z,24.6
2018-06-23T05:37:56.400Z,24.6
2018-06-23T05:38:46.751Z,24.7
2018-06-23T05:39:36.520Z,24.6
2018-06-23T05:40:26.877Z,24.6
2018-06-23T05:41:16.926Z,24.6
2018-06-23T05:42:06.726Z,24.6
2018-06-23T05:42:57.080Z,24.6
2018-06-23T05:43:46.864Z,24.6
2018-06-23T05:44:37.182Z,24.6
2018-06-23T05:45:27.239Z,24.6
2018-06-23T05:46:17.041Z,24.6
2018-06-23T05:47:07.385Z,24.6
2018-06-23T05:47:57.436Z,24.6
2018-06-23T05:48:47.518Z,24.6
2018-06-23T05:49:37.563Z,24.6
2018-06-23T05:50:27.616Z,24.6
2018-06-23T05:51:17.852Z,24.6
2018-06-23T05:52:07.766Z,24.6
2018-06-23T05:52:57.525Z,24.6
2018-06-23T05:53:47.871Z,24.6
2018-06-23T05:54:37.955Z,24.6
2018-06-23T05:55:27.726Z,24.6
2018-06-23T05:56:18.133Z,24.6
2018-06-23T05:57:08.140Z,24.5
2018-06-23T05:57:57.905Z,24.5
2018-06-23T05:58:48.252Z,24.5
2018-06-23T05:59:38.355Z,24.4
2018-06-23T06:00:28.379Z,24.4
2018-06-23T06:01:18.457Z,24.4
2018-06-23T06:02:08.507Z,24.4
2018-06-23T06:02:58.569Z,24.4
2018-06-23T06:03:48.628Z,24.4
2018-06-23T06:04:38.719Z,24.4
2018-06-23T06:05:28.762Z,24.4
2018-06-23T06:06:18.829Z,24.4
2018-06-23T06:07:09.009Z,24.3
2018-06-23T06:07:58.951Z,24.3
2018-06-23T06:08:49.007Z,24.3
2018-06-23T06:09:39.074Z,24.3
2018-06-23T06:10:29.134Z,24.3
2018-06-23T06:11:18.918Z,24.3
2018-06-23T06:12:09.307Z,24.3
2018-06-23T06:12:59.346Z,24.3
2018-06-23T06:13:49.423Z,24.3
2018-06-23T06:14:39.452Z,24.3
2018-06-23T06:15:29.259Z,24.4
2018-06-23T06:16:19.581Z,24.3
2018-06-23T06:17:09.657Z,24.3
2018-06-23T06:17:59.721Z,24.3
2018-06-23T06:18:49.763Z,24.3
2018-06-23T06:19:39.832Z,24.3
2018-06-23T06:20:29.896Z,24.3
2018-06-23T06:21:19.951Z,24.3
2018-06-23T06:22:09.759Z,24.3
2018-06-23T06:22:59.798Z,24.3
2018-06-23T06:23:50.363Z,24.3
2018-06-23T06:24:40.201Z,24.3
2018-06-23T06:25:29.992Z,24.3
2018-06-23T06:26:20.332Z,24.3
2018-06-23T06:27:10.396Z,24.3
2018-06-23T06:28:00.459Z,24.3
2018-06-23T06:28:50.547Z,24.2
2018-06-23T06:29:40.593Z,24.2
2018-06-23T06:30:30.648Z,24.2
2018-06-23T06:31:20.723Z,24.2
2018-06-23T06:32:10.773Z,24.2
2018-06-23T06:33:00.840Z,24.2
2018-06-23T06:33:50.904Z,24.2
2018-06-23T06:34:40.981Z,24.2
2018-06-23T06:35:30.771Z,24.2
2018-06-23T06:36:21.103Z,24.2
2018-06-23T06:37:11.160Z,24.2
2018-06-23T06:38:00.955Z,24.2
2018-06-23T06:38:51.304Z,24.2
2018-06-23T06:39:41.347Z,24.1
2018-06-23T06:40:31.428Z,24.2
2018-06-23T06:41:21.472Z,24.1
2018-06-23T06:42:11.260Z,24.1
2018-06-23T06:43:01.612Z,24.1
2018-06-23T06:43:51.662Z,24.1
2018-06-23T06:44:41.586Z,24.1
2018-06-23T06:45:31.510Z,24.1
2018-06-23T06:46:21.575Z,24.1
2018-06-23T06:47:11.920Z,24.1
2018-06-23T06:48:01.983Z,24.1
2018-06-23T06:48:52.041Z,24.1
2018-06-23T06:49:41.845Z,24.1
2018-06-23T06:50:32.167Z,24.1
2018-06-23T06:51:21.959Z,24.1
2018-06-23T06:52:12.298Z,24.1
2018-06-23T06:53:02.359Z,24.1
2018-06-23T06:53:52.417Z,24.1
2018-06-23T06:54:42.487Z,24.1
2018-06-23T06:55:32.545Z,24.1
2018-06-23T06:56:22.656Z,24.1
2018-06-23T06:57:12.937Z,24.1
2018-06-23T06:58:02.735Z,24.1
2018-06-23T06:58:52.809Z,24.1
2018-06-23T06:59:42.858Z,24.1
2018-06-23T07:00:32.927Z,24.1
2018-06-23T07:01:22.708Z,24.1
2018-06-23T07:02:13.067Z,24.1
2018-06-23T07:03:03.119Z,24.1
2018-06-23T07:03:53.178Z,24.1
2018-06-23T07:04:43.235Z,24.1
2018-06-23T07:05:33.299Z,24.1
2018-06-23T07:06:23.078Z,24.1
2018-06-23T07:07:13.435Z,24.1
2018-06-23T07:08:03.505Z,24.1
2018-06-23T07:08:53.772Z,24.1
2018-06-23T07:09:43.615Z,24.1
2018-06-23T07:10:33.671Z,24.1
2018-06-23T07:11:23.750Z,24.1
2018-06-23T07:12:13.814Z,24.1
2018-06-23T07:13:03.870Z,24.1
2018-06-23T07:13:53.948Z,24.1
2018-06-23T07:14:43.698Z,24.1
2018-06-23T07:15:34.132Z,24.1
2018-06-23T07:16:24.107Z,24.1
2018-06-23T07:17:14.173Z,24.1
2018-06-23T07:18:04.235Z,24.1
2018-06-23T07:18:54.289Z,24.1
2018-06-23T07:19:44.348Z,24.1
2018-06-23T07:20:34.412Z,24.1
2018-06-23T07:21:24.491Z,24.1
2018-06-23T07:22:14.536Z,24.1
2018-06-23T07:23:04.596Z,24.1
2018-06-23T07:23:55.151Z,24.1
2018-06-23T07:24:44.733Z,24.1
2018-06-23T07:25:34.509Z,24.1
2018-06-23T07:26:24.853Z,24.1
2018-06-23T07:27:14.921Z,24.1
2018-06-23T07:28:04.971Z,24.1
2018-06-23T07:28:55.047Z,24.1
2018-06-23T07:29:44.824Z,24.1
2018-06-23T07:30:35.220Z,24.1
2018-06-23T07:31:24.942Z,24.1
2018-06-23T07:32:15.304Z,24.1
2018-06-23T07:33:05.358Z,24.1
2018-06-23T07:33:55.150Z,24.1
2018-06-23T07:34:45.493Z,24.1
2018-06-23T07:35:35.258Z,24.1
2018-06-23T07:36:25.593Z,24.1
2018-06-23T07:37:15.664Z,24.1
2018-06-23T07:38:05.722Z,24.1
2018-06-23T07:38:55.778Z,24.1
2018-06-23T07:39:45.571Z,24.1
2018-06-23T07:40:36.088Z,24.1
2018-06-23T07:41:25.994Z,24.1
2018-06-23T07:42:16.049Z,24.1
2018-06-23T07:43:06.099Z,24.1
2018-06-23T07:43:55.904Z,24.1
2018-06-23T07:44:46.243Z,24.1
2018-06-23T07:45:36.294Z,24.1
2018-06-23T07:46:26.369Z,24.1
2018-06-23T07:47:16.431Z,24.1
2018-06-23T07:48:06.471Z,24.1
2018-06-23T07:48:56.540Z,24.1
2018-06-23T07:49:46.598Z,24.1
2018-06-23T07:50:36.655Z,24.1
2018-06-23T07:51:26.742Z,24.1
2018-06-23T07:52:16.789Z,24.1
2018-06-23T07:53:06.607Z,24.1
2018-06-23T07:53:56.641Z,24.1
2018-06-23T07:54:46.978Z,24.1
2018-06-23T07:55:37.043Z,24.1
2018-06-23T07:56:27.113Z,24.1
2018-06-23T07:57:17.158Z,24.1
2018-06-23T07:58:07.218Z,24.1
2018-06-23T07:58:57.270Z,24.1
2018-06-23T07:59:47.063Z,24.1
2018-06-23T08:00:37.138Z,24.1
2018-06-23T08:01:27.487Z,24.1
2018-06-23T08:02:17.525Z,24.1
2018-06-23T08:03:07.597Z,24.1
2018-06-23T08:03:57.649Z,24.1
2018-06-23T08:04:47.708Z,24.1
2018-06-23T08:05:37.492Z,24.1
2018-06-23T08:06:27.549Z,24.1
2018-06-23T08:07:17.916Z,24.1
2018-06-23T08:08:07.964Z,24.1
2018-06-23T08:08:57.759Z,24.1
2018-06-23T08:09:48.081Z,24.1
2018-06-23T08:10:38.149Z,24.1
2018-06-23T08:11:28.210Z,24.1
2018-06-23T08:12:18.265Z,24.1
2018-06-23T08:13:08.332Z,24.1
2018-06-23T08:13:58.395Z,24.1
2018-06-23T08:14:48.457Z,24.1
2018-06-23T08:15:38.518Z,24.1
2018-06-23T08:16:28.589Z,24.1
2018-06-23T08:17:18.655Z,24.1
2018-06-23T08:18:08.708Z,24.1
2018-06-23T08:18:58.763Z,24.1
2018-06-23T08:19:48.886Z,24
2018-06-23T08:20:38.609Z,24.1
2018-06-23T08:21:28.960Z,24.1
2018-06-23T08:22:19.011Z,24.1
2018-06-23T08:23:09.096Z,24.1
2018-06-23T08:23:59.155Z,24.1
2018-06-23T08:24:49.233Z,24.1
2018-06-23T08:25:38.991Z,24.1
2018-06-23T08:26:29.626Z,24.1
2018-06-23T08:27:19.383Z,24.1
2018-06-23T08:28:09.475Z,24.1
2018-06-23T08:28:59.508Z,24.1
2018-06-23T08:29:49.659Z,24.1
2018-06-23T08:30:39.635Z,24.1
2018-06-23T08:31:29.694Z,24.1
2018-06-23T08:32:19.762Z,24.1
2018-06-23T08:33:09.814Z,24.1
2018-06-23T08:33:59.882Z,24.1
2018-06-23T08:34:49.941Z,24.1
2018-06-23T08:35:39.747Z,24.1
2018-06-23T08:36:30.072Z,24.1
2018-06-23T08:37:19.959Z,24.1
2018-06-23T08:38:09.918Z,24.1
2018-06-23T08:39:00.249Z,24.1
2018-06-23T08:39:50.329Z,24.1
2018-06-23T08:40:40.380Z,24.1
2018-06-23T08:41:30.446Z,24.1
2018-06-23T08:42:20.513Z,24.1
2018-06-23T08:43:10.567Z,24.1
2018-06-23T08:44:00.627Z,24.1
2018-06-23T08:44:50.710Z,24.1
2018-06-23T08:45:40.756Z,24.1
2018-06-23T08:46:30.835Z,24.1
2018-06-23T08:47:20.882Z,24.1
2018-06-23T08:48:10.946Z,24.1
2018-06-23T08:49:01.068Z,24.1
2018-06-23T08:49:51.077Z,24.1
2018-06-23T08:50:41.138Z,24.1
2018-06-23T08:51:31.242Z,24.1
2018-06-23T08:52:21.252Z,24.1
2018-06-23T08:53:11.309Z,24.1
2018-06-23T08:54:01.384Z,24.1
2018-06-23T08:54:51.442Z,24.1
2018-06-23T08:55:41.513Z,24.1
2018-06-23T08:56:31.572Z,24.1
2018-06-23T08:57:21.630Z,24.1
2018-06-23T08:58:11.431Z,24.1
2018-06-23T08:59:01.493Z,24.1
2018-06-23T08:59:51.836Z,24.1
2018-06-23T09:00:41.877Z,24.1
2018-06-23T09:01:31.954Z,24.1
2018-06-23T09:02:22.005Z,24.1
2018-06-23T09:03:11.788Z,24.1
2018-06-23T09:04:02.140Z,24.1
2018-06-23T09:04:52.216Z,24.1
2018-06-23T09:05:42.264Z,24.1
2018-06-23T09:06:32.332Z,24.1
2018-06-23T09:07:22.117Z,24.1
2018-06-23T09:08:12.484Z,24.1
2018-06-23T09:09:02.537Z,24.1
2018-06-23T09:09:52.597Z,24.1
2018-06-23T09:10:42.640Z,24.1
2018-06-23T09:11:32.718Z,24.1
2018-06-23T09:12:22.813Z,24.1
2018-06-23T09:13:12.567Z,24.1
2018-06-23T09:14:02.909Z,24.1
2018-06-23T09:14:52.962Z,24.1
2018-06-23T09:15:43.017Z,24.1
2018-06-23T09:16:33.092Z,24.1
2018-06-23T09:17:23.155Z,24.1
2018-06-23T09:18:13.215Z,24.1
2018-06-23T09:19:03.273Z,24.1
2018-06-23T09:19:53.356Z,24.2
2018-06-23T09:20:43.409Z,24.1
2018-06-23T09:21:33.463Z,24.1
2018-06-23T09:22:23.606Z,24.1
2018-06-23T09:23:13.587Z,24.1
2018-06-23T09:24:03.653Z,24.2
2018-06-23T09:24:53.749Z,24.2
2018-06-23T09:25:43.824Z,24.2
2018-06-23T09:26:33.854Z,24.2
2018-06-23T09:27:23.898Z,24.2
2018-06-23T09:28:13.962Z,24.2
2018-06-23T09:29:04.022Z,24.2
2018-06-23T09:29:53.826Z,24.1
2018-06-23T09:30:44.159Z,24.1
2018-06-23T09:31:34.227Z,24.2
2018-06-23T09:32:24.277Z,24.2
2018-06-23T09:33:14.348Z,24.2
2018-06-23T09:34:04.404Z,24.2
2018-06-23T09:34:54.185Z,24.2
2018-06-23T09:35:44.547Z,24.1
2018-06-23T09:36:34.322Z,24.2
2018-06-23T09:37:24.378Z,24.2
2018-06-23T09:38:14.744Z,24.2
2018-06-23T09:39:04.786Z,24.2
2018-06-23T09:39:54.854Z,24.2
2018-06-23T09:40:44.914Z,24.2
2018-06-23T09:41:34.971Z,24.1
2018-06-23T09:42:24.773Z,24.2
2018-06-23T09:43:15.109Z,24.2
2018-06-23T09:44:05.159Z,24.1
2018-06-23T09:44:54.951Z,24.1
2018-06-23T09:45:45.337Z,24.2
2018-06-23T09:46:35.353Z,24.2
2018-06-23T09:47:25.431Z,24.2
2018-06-23T09:48:15.480Z,24.2
2018-06-23T09:49:05.578Z,24.2
2018-06-23T09:49:55.616Z,24.2
2018-06-23T09:50:45.672Z,24.2
2018-06-23T09:51:35.758Z,24.2
2018-06-23T09:52:25.516Z,24.2
2018-06-23T09:53:15.856Z,24.1
2018-06-23T09:54:05.640Z,24.2
2018-06-23T09:54:55.698Z,24.2
2018-06-23T09:55:46.092Z,24.2
2018-06-23T09:56:36.105Z,24.2
2018-06-23T09:57:25.898Z,24.2
2018-06-23T09:58:16.277Z,24.2
2018-06-23T09:59:06.313Z,24.2
2018-06-23T09:59:56.358Z,24.2
2018-06-23T10:00:46.155Z,24.2
2018-06-23T10:01:36.487Z,24.2
2018-06-23T10:02:26.277Z,24.2
2018-06-23T10:03:16.721Z,24.2
2018-06-23T10:04:06.444Z,24.2
2018-06-23T10:04:56.735Z,24.2
2018-06-23T10:05:46.816Z,24.2
2018-06-23T10:06:36.857Z,24.2
2018-06-23T10:07:26.927Z,24.2
2018-06-23T10:08:16.995Z,24.2
2018-06-23T10:09:07.063Z,24.2
2018-06-23T10:09:57.118Z,24.2
2018-06-23T10:10:47.175Z,24.2
2018-06-23T10:11:36.960Z,24.2
2018-06-23T10:12:27.305Z,24.1
2018-06-23T10:13:17.374Z,24.2
2018-06-23T10:14:07.444Z,24.1
2018-06-23T10:14:57.486Z,24.2
2018-06-23T10:15:47.287Z,24.2
2018-06-23T10:16:37.634Z,24.2
2018-06-23T10:17:27.411Z,24.2
2018-06-23T10:18:17.749Z,24.2
2018-06-23T10:19:07.796Z,24.2
2018-06-23T10:19:57.316Z,24.2
2018-06-23T10:20:47.936Z,24.2
2018-06-23T10:21:38.146Z,24.2
2018-06-23T10:22:28.071Z,24.2
2018-06-23T10:23:18.121Z,24.2
2018-06-23T10:24:08.183Z,24.2
2018-06-23T10:24:57.989Z,24.2
2018-06-23T10:25:48.313Z,24.2
2018-06-23T10:26:38.371Z,24.2
2018-06-23T10:27:28.580Z,24.2
2018-06-23T10:28:18.504Z,24.2
2018-06-23T10:29:08.559Z,24.1
2018-06-23T10:29:58.623Z,24.2
2018-06-23T10:30:48.692Z,24.2
2018-06-23T10:31:38.464Z,24.2
2018-06-23T10:32:28.817Z,24.2
2018-06-23T10:33:18.868Z,24.2
2018-06-23T10:34:08.950Z,24.2
2018-06-23T10:34:58.731Z,24.1
2018-06-23T10:35:49.066Z,24.2
2018-06-23T10:36:38.859Z,24.2
2018-06-23T10:37:29.192Z,24.1
2018-06-23T10:38:19.295Z,24.2
2018-06-23T10:39:09.335Z,24.1
2018-06-23T10:39:59.544Z,24.2
2018-06-23T10:40:49.164Z,24.1
2018-06-23T10:41:39.506Z,24.2
2018-06-23T10:42:29.576Z,24.1
2018-06-23T10:43:19.627Z,24.2
2018-06-23T10:44:09.735Z,24.2
2018-06-23T10:44:59.757Z,24.2
2018-06-23T10:45:49.821Z,24.1
2018-06-23T10:46:39.906Z,24.2
2018-06-23T10:47:29.683Z,24.2
2018-06-23T10:48:20.016Z,24.2
2018-06-23T10:49:10.078Z,24.1
2018-06-23T10:50:00.141Z,24.2
2018-06-23T10:50:49.928Z,24.1
2018-06-23T10:51:39.981Z,24.2
2018-06-23T10:52:30.325Z,24.2
2018-06-23T10:53:20.383Z,24.2
2018-06-23T10:54:10.455Z,24.1
2018-06-23T10:55:00.521Z,24.1
2018-06-23T10:55:50.316Z,24.1
2018-06-23T10:56:40.638Z,24.1
2018-06-23T10:57:30.704Z,24.1
2018-06-23T10:58:20.782Z,24.1
2018-06-23T10:59:10.832Z,24.1
2018-06-23T11:00:00.622Z,24.1
2018-06-23T11:00:50.961Z,24.2
2018-06-23T11:01:40.739Z,24.1
2018-06-23T11:02:31.084Z,24.1
2018-06-23T11:03:21.167Z,24.1
2018-06-23T11:04:11.208Z,24.2
2018-06-23T11:05:02.087Z,24.1
2018-06-23T11:05:51.345Z,24.1